createdAt,value
2022-10-05T00:00:36.247Z,1.00
2022-10-05T00:03:11.632Z,1.00
2022-10-05T00:05:41.088Z,1.00
2022-10-05T00:08:15.662Z,1.00
2022-10-05T00:10:44.101Z,1.00
2022-10-05T00:13:17.060Z,1.00
2022-10-05T00:15:45.479Z,1.00
2022-10-05T00:18:18.489Z,1.00
2022-10-05T00:20:48.886Z,1.00
2022-10-05T00:23:19.895Z,1.00
2022-10-05T00:25:48.171Z,1.00
2022-10-05T00:28:19.588Z,1.00
2022-10-05T00:30:47.723Z,1.00
2022-10-05T00:33:15.439Z,1.00
2022-10-05T00:35:43.182Z,1.00
2022-10-05T00:38:12.230Z,1.00
2022-10-05T00:40:53.616Z,1.00
2022-10-05T00:44:00.965Z,1.00
2022-10-05T00:46:38.507Z,1.00
2022-10-05T00:49:20.593Z,1.00
2022-10-05T00:51:56.926Z,1.00
2022-10-05T00:54:35.155Z,1.00
2022-10-05T00:57:18.853Z,1.00
2022-10-05T00:59:57.423Z,1.00
2022-10-05T01:02:36.550Z,1.00
2022-10-05T01:05:10.472Z,1.00
2022-10-05T01:07:45.948Z,1.00
2022-10-05T01:10:25.782Z,1.00
2022-10-05T01:13:04.836Z,1.00
2022-10-05T01:15:37.819Z,1.00
2022-10-05T01:18:13.231Z,1.00
2022-10-05T01:20:50.497Z,1.00
2022-10-05T01:24:02.194Z,1.00
2022-10-05T01:26:51.613Z,1.00
2022-10-05T01:29:24.554Z,1.00
2022-10-05T01:32:00.885Z,1.00
2022-10-05T01:34:37.133Z,1.00
2022-10-05T01:37:09.741Z,1.00
2022-10-05T01:39:46.850Z,1.00
2022-10-05T01:42:25.881Z,1.00
2022-10-05T01:45:05.414Z,1.00
2022-10-05T01:47:44.770Z,1.00
2022-10-05T01:50:24.541Z,1.00
2022-10-05T01:53:01.746Z,1.00
2022-10-05T01:55:36.320Z,1.00
2022-10-05T01:58:12.007Z,1.00
2022-10-05T02:00:51.640Z,1.00
2022-10-05T02:03:22.005Z,1.00
2022-10-05T02:05:53.473Z,1.00
2022-10-05T02:08:27.418Z,1.00
2022-10-05T02:11:00.687Z,1.00
2022-10-05T02:13:33.376Z,1.00
2022-10-05T02:16:07.980Z,1.00
2022-10-05T02:18:41.614Z,1.00
2022-10-05T02:21:09.899Z,1.00
2022-10-05T02:23:41.250Z,1.00
2022-10-05T02:26:12.069Z,1.00
2022-10-05T02:28:45.004Z,1.00
2022-10-05T02:31:16.716Z,1.00
2022-10-05T02:33:44.701Z,1.00
2022-10-05T02:36:16.248Z,1.00
2022-10-05T02:38:56.876Z,1.00
2022-10-05T02:41:33.517Z,1.00
2022-10-05T02:44:10.806Z,1.00
2022-10-05T02:46:46.817Z,1.00
2022-10-05T02:49:23.845Z,1.00
2022-10-05T02:51:57.501Z,1.00
2022-10-05T02:54:40.394Z,1.00
2022-10-05T02:57:14.921Z,1.00
2022-10-05T02:59:47.808Z,1.00
2022-10-05T03:02:23.167Z,1.00
2022-10-05T03:04:59.708Z,1.00
2022-10-05T03:07:33.357Z,1.00
2022-10-05T03:10:07.300Z,1.00
2022-10-05T03:12:49.210Z,1.00
2022-10-05T03:15:32.073Z,1.00
2022-10-05T03:18:10.221Z,1.00
2022-10-05T03:20:46.999Z,1.00
2022-10-05T03:23:27.989Z,1.00
2022-10-05T03:26:16.540Z,1.00
2022-10-05T03:28:54.816Z,1.00
2022-10-05T03:31:29.177Z,1.00
2022-10-05T03:34:02.810Z,1.00
2022-10-05T03:36:38.892Z,1.00
2022-10-05T03:39:13.033Z,1.00
2022-10-05T03:41:47.033Z,1.00
2022-10-05T03:44:32.755Z,1.00
2022-10-05T03:47:08.955Z,1.00
2022-10-05T03:50:03.029Z,1.00
2022-10-05T03:52:37.445Z,1.00
2022-10-05T03:55:14.343Z,1.00
2022-10-05T03:57:45.161Z,1.00
2022-10-05T04:00:17.004Z,1.00
2022-10-05T04:02:49.090Z,1.00
2022-10-05T04:05:21.652Z,1.00
2022-10-05T04:07:54.753Z,1.00
2022-10-05T04:10:26.609Z,1.00
2022-10-05T04:12:58.539Z,1.00
2022-10-05T04:15:32.563Z,1.00
2022-10-05T04:18:05.018Z,1.00
2022-10-05T04:20:42.013Z,1.00
2022-10-05T04:23:18.271Z,4.70
2022-10-05T04:25:49.680Z,15.40
2022-10-05T04:28:26.039Z,20.00
2022-10-05T04:30:55.978Z,24.00
2022-10-05T04:33:24.082Z,27.40
2022-10-05T04:36:14.314Z,29.20
2022-10-05T04:38:54.788Z,32.80
2022-10-05T04:41:40.250Z,34.70
2022-10-05T04:44:19.064Z,36.70
2022-10-05T04:47:01.910Z,40.00
2022-10-05T04:49:44.912Z,43.00
2022-10-05T04:52:22.581Z,45.40
2022-10-05T04:55:03.734Z,49.80
2022-10-05T04:57:41.456Z,51.30
2022-10-05T05:00:23.568Z,48.60
2022-10-05T05:03:13.130Z,45.90
2022-10-05T05:06:15.239Z,50.40
2022-10-05T05:08:57.979Z,48.00
2022-10-05T05:11:33.595Z,47.50
2022-10-05T05:14:29.393Z,48.60
2022-10-05T05:17:14.457Z,51.00
2022-10-05T05:19:51.556Z,51.00
2022-10-05T05:22:30.152Z,53.40
2022-10-05T05:25:18.921Z,53.40
2022-10-05T05:27:49.930Z,53.00
2022-10-05T05:30:23.798Z,50.20
2022-10-05T05:33:12.103Z,51.80
2022-10-05T05:36:12.491Z,51.30
2022-10-05T05:38:44.522Z,49.40
2022-10-05T05:41:17.471Z,49.10
2022-10-05T05:44:00.742Z,51.10
2022-10-05T05:47:01.723Z,53.90
2022-10-05T05:49:28.067Z,56.30
2022-10-05T05:51:59.119Z,56.70
2022-10-05T05:54:32.246Z,56.30
2022-10-05T05:57:10.764Z,57.50
2022-10-05T05:59:50.455Z,54.70
2022-10-05T06:02:22.465Z,55.80
2022-10-05T06:04:55.398Z,54.50
2022-10-05T06:07:30.738Z,53.60
2022-10-05T06:10:04.178Z,49.90
2022-10-05T06:12:38.519Z,49.30
2022-10-05T06:15:18.114Z,48.10
2022-10-05T06:17:52.608Z,47.40
2022-10-05T06:20:28.452Z,45.70
2022-10-05T06:22:59.720Z,43.50
2022-10-05T06:25:35.625Z,42.30
2022-10-05T06:28:11.156Z,41.80
2022-10-05T06:30:49.604Z,38.40
2022-10-05T06:33:28.762Z,39.50
2022-10-05T06:36:08.252Z,36.60
2022-10-05T06:38:54.377Z,34.10
2022-10-05T06:41:37.680Z,34.00
2022-10-05T06:44:10.712Z,34.00
2022-10-05T06:46:49.926Z,31.50
2022-10-05T06:49:21.343Z,30.00
2022-10-05T06:51:56.409Z,29.40
2022-10-05T06:54:49.764Z,30.00
2022-10-05T06:57:37.887Z,29.50
2022-10-05T07:00:17.774Z,29.80
2022-10-05T07:02:53.803Z,32.40
2022-10-05T07:05:55.566Z,34.80
2022-10-05T07:08:35.444Z,37.30
2022-10-05T07:11:13.848Z,36.10
2022-10-05T07:14:00.990Z,36.60
2022-10-05T07:16:39.117Z,33.60
2022-10-05T07:19:19.680Z,32.20
2022-10-05T07:22:00.183Z,29.90
2022-10-05T07:24:33.394Z,30.00
2022-10-05T07:27:13.549Z,28.10
2022-10-05T07:29:49.979Z,22.50
2022-10-05T07:32:33.699Z,24.00
2022-10-05T07:35:29.993Z,22.20
2022-10-05T07:38:00.514Z,23.50
2022-10-05T07:40:32.282Z,23.80
2022-10-05T07:43:08.750Z,24.90
2022-10-05T07:45:45.194Z,25.40
2022-10-05T07:48:19.845Z,24.80
2022-10-05T07:51:00.795Z,18.30
2022-10-05T07:53:33.823Z,17.50
2022-10-05T07:56:04.530Z,18.10
2022-10-05T07:58:37.575Z,18.10
2022-10-05T08:01:11.327Z,18.00
2022-10-05T08:03:52.149Z,17.60
2022-10-05T08:06:39.305Z,17.10
2022-10-05T08:09:20.043Z,17.90
2022-10-05T08:11:56.628Z,17.80
2022-10-05T08:14:33.523Z,18.60
2022-10-05T08:17:06.842Z,23.10
2022-10-05T08:19:44.019Z,18.80
2022-10-05T08:22:17.456Z,19.70
2022-10-05T08:24:55.437Z,19.80
2022-10-05T08:27:29.515Z,18.10
2022-10-05T08:30:01.581Z,19.80
2022-10-05T08:32:35.869Z,18.10
2022-10-05T08:35:22.155Z,18.10
2022-10-05T08:37:51.600Z,16.70
2022-10-05T08:41:04.573Z,16.60
2022-10-05T08:44:10.274Z,15.70
2022-10-05T08:47:09.888Z,15.30
2022-10-05T08:50:17.934Z,21.60
2022-10-05T08:53:21.521Z,23.10
2022-10-05T08:56:27.802Z,28.20
2022-10-05T08:59:26.105Z,27.30
2022-10-05T09:02:18.274Z,23.10
2022-10-05T09:05:08.732Z,27.30
2022-10-05T09:08:00.641Z,29.40
2022-10-05T09:11:00.708Z,27.50
2022-10-05T09:13:54.088Z,27.10
2022-10-05T09:16:48.946Z,8.00
2022-10-05T09:19:35.811Z,7.90
2022-10-05T09:22:15.027Z,6.10
2022-10-05T09:25:09.227Z,2.80
2022-10-05T09:27:38.786Z,1.80
2022-10-05T09:30:24.328Z,1.90
2022-10-05T09:33:15.653Z,4.50
2022-10-05T09:36:08.061Z,6.10
2022-10-05T09:38:52.520Z,5.00
2022-10-05T09:41:44.242Z,2.10
2022-10-05T09:44:54.541Z,1.00
2022-10-05T09:48:00.708Z,1.00
2022-10-05T09:51:04.044Z,1.00
2022-10-05T09:54:02.867Z,1.00
2022-10-05T09:57:03.472Z,1.00
2022-10-05T09:59:56.302Z,1.00
2022-10-05T10:02:40.159Z,1.00
2022-10-05T10:05:31.093Z,1.00
2022-10-05T10:08:20.734Z,1.00
2022-10-05T10:11:12.862Z,1.00
2022-10-05T10:14:20.515Z,1.00
2022-10-05T10:17:10.744Z,1.00
2022-10-05T10:20:08.194Z,1.00
2022-10-05T10:23:01.253Z,1.00
2022-10-05T10:26:03.129Z,1.00
2022-10-05T10:28:53.601Z,1.00
2022-10-05T10:31:39.504Z,1.00
2022-10-05T10:34:46.163Z,1.00
2022-10-05T10:37:40.859Z,1.00
2022-10-05T10:40:30.291Z,1.00
2022-10-05T10:43:27.515Z,1.00
2022-10-05T10:46:03.073Z,1.00
2022-10-05T10:48:57.319Z,1.00
2022-10-05T10:51:56.333Z,1.00
2022-10-05T10:55:00.380Z,1.00
2022-10-05T10:57:40.923Z,1.00
2022-10-05T11:00:35.132Z,1.00
2022-10-05T11:03:23.812Z,1.00
2022-10-05T11:06:21.294Z,1.00
2022-10-05T11:09:25.534Z,1.00
2022-10-05T11:12:34.576Z,1.00
2022-10-05T11:15:36.914Z,1.00
2022-10-05T11:18:27.003Z,1.00
2022-10-05T11:21:22.842Z,1.00
2022-10-05T11:24:23.185Z,1.00
2022-10-05T11:27:33.928Z,1.00
2022-10-05T11:30:26.697Z,1.00
2022-10-05T11:33:27.722Z,1.00
2022-10-05T11:36:28.617Z,1.00
2022-10-05T11:39:25.381Z,1.00
2022-10-05T11:42:29.833Z,1.00
2022-10-05T11:45:37.399Z,1.00
2022-10-05T11:48:33.033Z,1.00
2022-10-05T11:51:24.045Z,1.00
2022-10-05T11:54:04.944Z,1.00
2022-10-05T11:56:36.962Z,1.00
2022-10-05T11:59:14.086Z,1.00
2022-10-05T12:01:53.443Z,1.00
2022-10-05T12:04:33.710Z,1.00
2022-10-05T12:07:12.541Z,1.00
2022-10-05T12:10:14.206Z,1.00
2022-10-05T12:12:52.410Z,1.00
2022-10-05T12:15:26.449Z,1.00
2022-10-05T12:18:01.974Z,1.00
2022-10-05T12:20:34.318Z,1.00
2022-10-05T12:23:07.859Z,1.00
2022-10-05T12:25:40.815Z,1.00
2022-10-05T12:28:12.986Z,1.00
2022-10-05T12:31:01.070Z,1.00
2022-10-05T12:33:35.412Z,1.00
2022-10-05T12:36:08.777Z,1.00
2022-10-05T12:38:41.841Z,1.00
2022-10-05T12:41:20.510Z,1.00
2022-10-05T12:43:59.672Z,1.00
2022-10-05T12:46:39.107Z,1.00
2022-10-05T12:49:21.854Z,1.00
2022-10-05T12:51:56.711Z,1.00
2022-10-05T12:54:32.075Z,1.00
2022-10-05T12:57:06.600Z,1.00
2022-10-05T12:59:41.103Z,1.00
2022-10-05T13:02:21.160Z,1.00
2022-10-05T13:04:57.325Z,1.00
2022-10-05T13:07:42.301Z,1.00
2022-10-05T13:10:24.552Z,1.00
2022-10-05T13:13:04.646Z,1.00
2022-10-05T13:15:35.977Z,1.00
2022-10-05T13:18:12.208Z,1.00
2022-10-05T13:20:47.935Z,1.00
2022-10-05T13:23:25.779Z,1.00
2022-10-05T13:26:00.694Z,1.00
2022-10-05T13:28:32.406Z,1.00
2022-10-05T13:31:08.021Z,1.00
2022-10-05T13:34:02.841Z,1.00
2022-10-05T13:36:42.536Z,1.00
2022-10-05T13:39:22.489Z,1.00
2022-10-05T13:41:55.465Z,1.00
2022-10-05T13:44:32.052Z,1.00
2022-10-05T13:47:06.116Z,1.00
2022-10-05T13:49:42.471Z,1.00
2022-10-05T13:52:24.705Z,1.00
2022-10-05T13:54:58.999Z,1.00
2022-10-05T13:57:47.751Z,1.00
2022-10-05T14:00:22.634Z,1.00
2022-10-05T14:02:56.456Z,1.00
2022-10-05T14:05:26.690Z,1.00
2022-10-05T14:07:58.395Z,1.00
2022-10-05T14:10:38.151Z,1.00
2022-10-05T14:13:26.325Z,1.00
2022-10-05T14:16:05.342Z,1.00
2022-10-05T14:18:34.914Z,1.00
2022-10-05T14:21:15.363Z,1.00
2022-10-05T14:23:44.944Z,1.00
2022-10-05T14:26:21.107Z,1.00
2022-10-05T14:29:00.122Z,1.00
2022-10-05T14:31:32.005Z,1.00
2022-10-05T14:34:31.766Z,1.00
2022-10-05T14:37:02.835Z,1.00
2022-10-05T14:39:36.029Z,1.00
2022-10-05T14:42:15.615Z,1.00
2022-10-05T14:44:43.390Z,1.00
2022-10-05T14:47:21.093Z,1.00
2022-10-05T14:50:10.519Z,1.00
2022-10-05T14:52:41.048Z,1.00
2022-10-05T14:55:42.658Z,1.00
2022-10-05T14:58:26.877Z,1.00
2022-10-05T15:01:02.152Z,1.00
2022-10-05T15:03:45.590Z,1.00
2022-10-05T15:06:21.263Z,1.00
2022-10-05T15:09:09.112Z,1.00
2022-10-05T15:11:51.027Z,1.00
2022-10-05T15:14:24.362Z,1.00
2022-10-05T15:16:55.363Z,1.00
2022-10-05T15:19:28.180Z,1.00
2022-10-05T15:22:10.963Z,1.00
2022-10-05T15:24:44.040Z,1.00
2022-10-05T15:27:26.129Z,1.00
2022-10-05T15:30:03.174Z,1.00
2022-10-05T15:32:42.003Z,1.00
2022-10-05T15:35:30.176Z,1.00
2022-10-05T15:38:04.178Z,1.00
2022-10-05T15:40:38.304Z,1.00
2022-10-05T15:43:13.295Z,1.00
2022-10-05T15:45:53.758Z,1.00
2022-10-05T15:48:29.042Z,1.00
2022-10-05T15:51:06.924Z,1.00
2022-10-05T15:53:40.878Z,1.00
2022-10-05T15:56:16.484Z,1.00
2022-10-05T15:58:54.191Z,1.00
2022-10-05T16:01:40.473Z,1.00
2022-10-05T16:04:16.769Z,1.00
2022-10-05T16:07:07.849Z,1.00
2022-10-05T16:09:44.356Z,1.00
2022-10-05T16:12:22.423Z,1.00
2022-10-05T16:15:01.357Z,1.00
2022-10-05T16:17:42.010Z,1.00
2022-10-05T16:20:25.905Z,1.00
2022-10-05T16:23:02.418Z,1.00
2022-10-05T16:25:45.341Z,1.00
2022-10-05T16:28:22.384Z,1.00
2022-10-05T16:31:01.235Z,1.00
2022-10-05T16:33:41.277Z,1.00
2022-10-05T16:36:22.677Z,1.00
2022-10-05T16:38:57.736Z,1.00
2022-10-05T16:41:32.536Z,1.00
2022-10-05T16:44:08.327Z,1.00
2022-10-05T16:46:46.439Z,1.00
2022-10-05T16:49:22.881Z,1.00
2022-10-05T16:51:58.984Z,1.00
2022-10-05T16:54:31.458Z,1.00
2022-10-05T16:57:05.380Z,1.00
2022-10-05T16:59:55.329Z,1.00
2022-10-05T17:02:41.321Z,1.00
2022-10-05T17:05:24.042Z,1.00
2022-10-05T17:08:02.374Z,1.00
2022-10-05T17:10:44.305Z,1.00
2022-10-05T17:13:29.953Z,1.00
2022-10-05T17:16:05.609Z,1.00
2022-10-05T17:19:02.240Z,1.00
2022-10-05T17:21:35.322Z,1.00
2022-10-05T17:24:18.807Z,1.00
2022-10-05T17:26:59.239Z,1.00
2022-10-05T17:29:29.735Z,1.00
2022-10-05T17:32:11.611Z,1.00
2022-10-05T17:35:18.529Z,1.00
2022-10-05T17:38:14.347Z,1.00
2022-10-05T17:41:02.979Z,1.00
2022-10-05T17:43:31.875Z,1.00
2022-10-05T17:46:01.535Z,1.00
2022-10-05T17:49:06.545Z,1.00
2022-10-05T17:52:16.528Z,1.00
2022-10-05T17:55:27.575Z,1.00
2022-10-05T17:57:59.755Z,1.00
2022-10-05T18:00:43.621Z,1.00
2022-10-05T18:03:37.645Z,1.00
2022-10-05T18:06:33.245Z,1.00
2022-10-05T18:09:28.682Z,1.00
2022-10-05T18:12:26.628Z,1.00
2022-10-05T18:15:02.554Z,1.00
2022-10-05T18:17:40.473Z,1.00
2022-10-05T18:20:30.043Z,1.00
2022-10-05T18:23:35.643Z,1.00
2022-10-05T18:26:20.428Z,1.00
2022-10-05T18:28:57.155Z,1.00
2022-10-05T18:31:34.044Z,1.00
2022-10-05T18:34:26.142Z,1.00
2022-10-05T18:37:12.150Z,1.00
2022-10-05T18:39:58.529Z,1.00
2022-10-05T18:42:36.360Z,1.00
2022-10-05T18:45:17.609Z,1.00
2022-10-05T18:47:54.920Z,1.00
2022-10-05T18:50:29.995Z,1.00
2022-10-05T18:53:16.542Z,1.00
2022-10-05T18:55:48.698Z,1.00
2022-10-05T18:58:23.968Z,1.00
2022-10-05T19:01:43.327Z,1.00
2022-10-05T19:04:22.320Z,1.00
2022-10-05T19:07:00.030Z,1.00
2022-10-05T19:09:53.559Z,1.00
2022-10-05T19:12:37.001Z,1.00
2022-10-05T19:15:22.019Z,1.00
2022-10-05T19:18:21.607Z,1.00
2022-10-05T19:20:59.301Z,1.00
2022-10-05T19:23:42.867Z,1.00
2022-10-05T19:26:16.155Z,1.00
2022-10-05T19:28:55.689Z,1.00
2022-10-05T19:31:35.719Z,1.00
2022-10-05T19:34:16.640Z,1.00
2022-10-05T19:36:55.593Z,1.00
2022-10-05T19:39:33.854Z,1.00
2022-10-05T19:42:14.597Z,1.00
2022-10-05T19:44:56.533Z,1.00
2022-10-05T19:47:41.300Z,1.00
2022-10-05T19:50:26.262Z,1.00
2022-10-05T19:53:02.568Z,1.00
2022-10-05T19:55:35.702Z,1.00
2022-10-05T19:58:21.112Z,1.00
2022-10-05T20:00:57.822Z,1.00
2022-10-05T20:03:29.041Z,1.00
2022-10-05T20:05:58.823Z,1.00
2022-10-05T20:08:31.791Z,1.00
2022-10-05T20:11:12.756Z,1.00
2022-10-05T20:13:42.132Z,1.00
2022-10-05T20:16:48.042Z,1.00
2022-10-05T20:19:57.739Z,1.00
2022-10-05T20:22:28.480Z,1.00
2022-10-05T20:24:58.872Z,1.00
2022-10-05T20:27:38.754Z,1.00
2022-10-05T20:30:08.584Z,1.00
2022-10-05T20:32:36.607Z,1.00
2022-10-05T20:35:06.788Z,1.00
2022-10-05T20:37:34.849Z,1.00
2022-10-05T20:40:02.948Z,1.00
2022-10-05T20:42:31.249Z,1.00
2022-10-05T20:44:59.109Z,1.00
2022-10-05T20:47:27.592Z,1.00
2022-10-05T20:49:55.630Z,1.00
2022-10-05T20:52:24.991Z,1.00
2022-10-05T20:54:53.974Z,1.00
2022-10-05T20:57:24.290Z,1.00
2022-10-05T20:59:52.455Z,1.00
2022-10-05T21:02:20.587Z,1.00
2022-10-05T21:04:48.715Z,1.00
2022-10-05T21:07:17.635Z,1.00
2022-10-05T21:09:46.981Z,1.00
2022-10-05T21:12:16.438Z,1.00
2022-10-05T21:14:44.297Z,1.00
2022-10-05T21:17:12.471Z,1.00
2022-10-05T21:19:40.388Z,1.00
2022-10-05T21:22:09.934Z,1.00
2022-10-05T21:24:39.807Z,1.00
2022-10-05T21:27:09.503Z,1.00
2022-10-05T21:29:40.874Z,1.00
2022-10-05T21:32:11.728Z,1.00
2022-10-05T21:34:40.314Z,1.00
2022-10-05T21:37:08.551Z,1.00
2022-10-05T21:39:36.679Z,1.00
2022-10-05T21:42:05.110Z,1.00
2022-10-05T21:44:35.431Z,1.00
2022-10-05T21:47:04.140Z,1.00
2022-10-05T21:49:33.410Z,1.00
2022-10-05T21:52:02.695Z,1.00
2022-10-05T21:54:30.654Z,1.00
2022-10-05T21:56:59.993Z,1.00
2022-10-05T21:59:30.214Z,1.00
2022-10-05T22:01:59.325Z,1.00
2022-10-05T22:04:27.313Z,1.00
2022-10-05T22:06:55.468Z,1.00
2022-10-05T22:09:23.453Z,1.00
2022-10-05T22:11:51.275Z,1.00
2022-10-05T22:14:19.285Z,1.00
2022-10-05T22:16:47.165Z,1.00
2022-10-05T22:19:19.660Z,1.00
2022-10-05T22:21:47.657Z,1.00
2022-10-05T22:24:15.537Z,1.00
2022-10-05T22:26:46.335Z,1.00
2022-10-05T22:29:17.107Z,1.00
2022-10-05T22:31:46.291Z,1.00
2022-10-05T22:34:14.121Z,1.00
2022-10-05T22:36:43.581Z,1.00
2022-10-05T22:39:11.365Z,1.00
2022-10-05T22:41:39.231Z,1.00
2022-10-05T22:44:07.203Z,1.00
2022-10-05T22:46:35.207Z,1.00
2022-10-05T22:49:03.276Z,1.00
2022-10-05T22:51:31.117Z,1.00
2022-10-05T22:54:00.410Z,1.00
2022-10-05T22:56:28.532Z,1.00
2022-10-05T22:58:56.427Z,1.00
2022-10-05T23:01:24.729Z,1.00
2022-10-05T23:03:52.610Z,1.00
2022-10-05T23:06:21.573Z,1.00
2022-10-05T23:08:49.555Z,1.00
2022-10-05T23:11:21.260Z,1.00
2022-10-05T23:13:50.229Z,1.00
2022-10-05T23:16:20.207Z,1.00
2022-10-05T23:18:49.702Z,1.00
2022-10-05T23:21:18.285Z,1.00
2022-10-05T23:23:48.961Z,1.00
2022-10-05T23:26:19.152Z,1.00
2022-10-05T23:28:49.152Z,1.00
2022-10-05T23:31:20.011Z,1.00
2022-10-05T23:33:48.206Z,1.00
2022-10-05T23:36:18.232Z,1.00
2022-10-05T23:38:46.452Z,1.00
2022-10-05T23:41:15.900Z,1.00
2022-10-05T23:43:45.276Z,1.00
2022-10-05T23:46:13.862Z,1.00
2022-10-05T23:48:41.931Z,1.00
2022-10-05T23:51:11.935Z,1.00
2022-10-05T23:53:39.813Z,1.00
2022-10-05T23:56:08.442Z,1.00
2022-10-05T23:58:36.454Z,1.00
